Terminal Aerodrome Forecast
Issued by NWS Wilmington, NC

Home | Current Version | Previous Version | Text Only | Print | Product List | Glossary On
Versions: 1 2 3 4 5 6 7 8 9 10 11 12
028
FTUS42 KILM 230520
TAFILM
TAF
KILM 230520Z 2306/2406 04004KT P6SM FEW050 BKN200
     FM231400 09006KT P6SM SCT060 BKN200
     FM231900 11008KT P6SM SCT045 SCT250
     FM240000 06003KT P6SM FEW250=

USA.gov is the U.S. government's official web portal to all federal, state and local government web resources and services.